Hlavní strana
METAR-TAF:

METAR-TAF

Letiště :

Bobo-Dioulasso, Burkina Faso

zeměpisná šířka: 11-10N, zeměpisná délka: 004-19W, výška: 460 m

Aktuální stav počasí

Zpráva byla vytvořena před 1 hodinou a 7 minutami, v 04:00 UTC
Severovýchodní vítr 2 kt
Teplota 18°C
Vlhkost vzduchu 39%
Tlak 1012 hPa
Viditelnost 10 km a více
Žádná oblačnost pod 1500 m, nevyskytují se cumulonimby.

METAR: DFOO 160400Z 05002KT CAVOK 18/04 Q1012

Čas: 05:07 (05:07 UTC)

Předpověď počasí

Zpráva byla vytvořena před 6 hodinami a 7 minutami, v 23:00 UTC
Předpověď platná od 16 v 00 UTC do 16 v 24 UTC
Severovýchodní vítr 8 kt
Viditelnost: 8000 m
Dočasný
od 16 v 06 UTC do 16 v 10 UTC
Viditelnost: 3500 m
zákal

TAF: DFOO 152300Z 1600/1624 04008KT 8000 NSC TEMPO 1606/1610 3500 HZ

Stav a předpovědi počasí z více než 4 000 letišť (zprávy METAR a TAF).

Červené a žluté tečky na mapě představují dostupné meteorologické stanice.

Když kurzor umístíte na tečku, zobrazí se název stanice.

Pak kliknutím zobrazíte stav a předpověď počasí.

Chcete-li změnit mapu, kliknutím na zelené tlačítko se znaménkem +mapu přiblížíte, kliknutím na zelené tlačítko se znaménkem – mapu oddálíte a kliknutím na zelené šipky přejdete na sousední mapy.


METAR-TAF: